createdAt,value
2019-06-08T00:01:45.622Z,99.90
2019-06-08T00:04:16.435Z,99.90
2019-06-08T00:06:46.078Z,99.90
2019-06-08T00:09:16.706Z,99.90
2019-06-08T00:11:46.285Z,99.90
2019-06-08T00:14:15.780Z,99.90
2019-06-08T00:16:46.614Z,99.90
2019-06-08T00:19:15.986Z,99.90
2019-06-08T00:21:45.417Z,99.90
2019-06-08T00:24:15.732Z,99.90
2019-06-08T00:26:45.435Z,99.90
2019-06-08T00:29:16.151Z,99.90
2019-06-08T00:31:45.834Z,99.90
2019-06-08T00:34:16.495Z,99.90
2019-06-08T00:36:46.202Z,99.90
2019-06-08T00:39:16.744Z,99.90
2019-06-08T00:41:46.491Z,99.90
2019-06-08T00:44:17.058Z,99.90
2019-06-08T00:46:46.578Z,99.90
2019-06-08T00:49:16.428Z,99.90
2019-06-08T00:51:47.159Z,99.90
2019-06-08T00:54:17.377Z,99.90
2019-06-08T00:56:47.135Z,99.90
2019-06-08T00:59:17.833Z,99.90
2019-06-08T01:01:48.654Z,99.90
2019-06-08T01:04:18.636Z,99.90
2019-06-08T01:06:49.467Z,99.90
2019-06-08T01:09:20.135Z,99.90
2019-06-08T01:11:49.762Z,99.90
2019-06-08T01:14:19.216Z,99.90
2019-06-08T01:16:48.679Z,99.90
2019-06-08T01:19:19.192Z,99.90
2019-06-08T01:21:48.776Z,99.90
2019-06-08T01:24:19.523Z,99.90
2019-06-08T01:26:49.200Z,99.90
2019-06-08T01:29:20.085Z,99.90
2019-06-08T01:31:50.694Z,99.90
2019-06-08T01:34:20.570Z,99.90
2019-06-08T01:36:50.176Z,99.90
2019-06-08T01:39:19.576Z,99.90
2019-06-08T01:41:49.679Z,99.90
2019-06-08T01:44:19.130Z,99.90
2019-06-08T01:46:48.586Z,99.90
2019-06-08T01:49:18.071Z,99.90
2019-06-08T01:51:47.494Z,99.90
2019-06-08T01:54:16.929Z,99.90
2019-06-08T01:56:47.462Z,99.90
2019-06-08T01:59:16.909Z,99.90
2019-06-08T02:01:46.354Z,99.90
2019-06-08T02:04:15.799Z,99.90
2019-06-08T02:06:45.317Z,99.90
2019-06-08T02:09:14.819Z,99.90
2019-06-08T02:11:44.191Z,99.90
2019-06-08T02:14:13.663Z,99.90
2019-06-08T02:16:44.288Z,99.90
2019-06-08T02:19:13.751Z,99.90
2019-06-08T02:21:43.194Z,99.90
2019-06-08T02:24:12.635Z,99.90
2019-06-08T02:26:42.141Z,99.90
2019-06-08T02:29:11.595Z,99.90
2019-06-08T02:31:42.006Z,99.90
2019-06-08T02:34:11.701Z,99.90
2019-06-08T02:36:41.151Z,99.90
2019-06-08T02:39:10.754Z,99.90
2019-06-08T02:41:40.286Z,99.90
2019-06-08T02:44:09.788Z,99.90
2019-06-08T02:46:40.417Z,99.90
2019-06-08T02:49:10.242Z,99.90
2019-06-08T02:51:41.109Z,99.90
2019-06-08T02:54:12.351Z,99.90
2019-06-08T02:56:43.762Z,99.90
2019-06-08T02:59:15.181Z,99.90
2019-06-08T03:01:48.125Z,99.90
2019-06-08T03:04:18.773Z,99.90
2019-06-08T03:06:51.028Z,99.90
2019-06-08T03:09:21.934Z,99.90
2019-06-08T03:11:52.729Z,99.90
2019-06-08T03:14:25.264Z,99.90
2019-06-08T03:16:55.334Z,99.90
2019-06-08T03:19:24.788Z,99.90
2019-06-08T03:21:54.297Z,99.90
2019-06-08T03:24:23.803Z,99.90
2019-06-08T03:26:53.310Z,99.90
2019-06-08T03:29:22.841Z,99.90
2019-06-08T03:31:56.223Z,99.90
2019-06-08T03:34:23.352Z,99.90
2019-06-08T03:36:56.737Z,99.90
2019-06-08T03:39:23.862Z,99.90
2019-06-08T03:41:53.309Z,99.90
2019-06-08T03:44:22.747Z,99.90
2019-06-08T03:46:52.205Z,99.90
2019-06-08T03:49:40.266Z,99.90
2019-06-08T03:51:53.910Z,99.90
2019-06-08T03:54:23.347Z,99.90
2019-06-08T03:56:52.865Z,99.90
2019-06-08T03:59:22.334Z,99.90
2019-06-08T04:01:51.765Z,99.90
2019-06-08T04:04:21.205Z,99.90
2019-06-08T04:06:50.653Z,99.90
2019-06-08T04:09:20.118Z,99.90
2019-06-08T04:11:50.276Z,99.90
2019-06-08T04:14:19.939Z,99.90
2019-06-08T04:16:50.292Z,99.90
2019-06-08T04:19:20.118Z,99.90
2019-06-08T04:21:50.662Z,99.90
2019-06-08T04:24:21.251Z,99.90
2019-06-08T04:26:50.863Z,99.90
2019-06-08T04:29:20.239Z,99.90
2019-06-08T04:31:50.102Z,99.90
2019-06-08T04:34:19.846Z,99.90
2019-06-08T04:36:50.418Z,99.90
2019-06-08T04:39:20.044Z,99.90
2019-06-08T04:41:50.931Z,99.90
2019-06-08T04:44:20.746Z,99.90
2019-06-08T04:46:51.475Z,99.90
2019-06-08T04:49:20.964Z,99.90
2019-06-08T04:51:50.372Z,99.90
2019-06-08T04:54:19.829Z,99.90
2019-06-08T04:56:49.668Z,99.90
2019-06-08T04:59:19.271Z,99.90
2019-06-08T05:01:49.288Z,99.90
2019-06-08T05:04:19.146Z,99.90
2019-06-08T05:06:49.553Z,99.90
2019-06-08T05:09:19.328Z,99.90
2019-06-08T05:11:49.669Z,99.90
2019-06-08T05:14:20.519Z,99.90
2019-06-08T05:16:49.975Z,99.90
2019-06-08T05:19:19.451Z,99.90
2019-06-08T05:21:49.933Z,99.90
2019-06-08T05:24:20.769Z,99.90
2019-06-08T05:26:50.222Z,99.90
2019-06-08T05:29:19.738Z,99.90
2019-06-08T05:31:49.839Z,99.90
2019-06-08T05:34:19.344Z,99.90
2019-06-08T05:36:49.821Z,99.90
2019-06-08T05:39:19.849Z,99.90
2019-06-08T05:41:49.797Z,99.90
2019-06-08T05:44:19.331Z,99.90
2019-06-08T05:46:49.835Z,99.90
2019-06-08T05:49:20.799Z,99.90
2019-06-08T05:51:50.263Z,99.90
2019-06-08T05:54:20.989Z,99.90
2019-06-08T05:56:50.583Z,99.90
2019-06-08T05:59:19.943Z,99.90
2019-06-08T06:02:08.815Z,99.90
2019-06-08T06:04:38.286Z,99.90
2019-06-08T06:07:07.851Z,99.90
2019-06-08T06:09:37.267Z,99.90
2019-06-08T06:12:06.795Z,99.90
2019-06-08T06:14:36.979Z,99.90
2019-06-08T06:17:06.599Z,99.90
2019-06-08T06:19:36.061Z,99.90
2019-06-08T06:22:06.567Z,99.90
2019-06-08T06:24:36.040Z,99.90
2019-06-08T06:27:05.504Z,99.90
2019-06-08T06:29:34.938Z,99.90
2019-06-08T06:32:05.136Z,99.90
2019-06-08T06:34:34.572Z,99.90
2019-06-08T06:37:04.012Z,99.90
2019-06-08T06:39:33.485Z,99.90
2019-06-08T06:42:02.919Z,99.90
2019-06-08T06:44:32.367Z,99.90
2019-06-08T06:47:01.816Z,99.90
2019-06-08T06:49:31.284Z,99.90
2019-06-08T06:52:00.715Z,99.90
2019-06-08T06:54:30.162Z,99.90
2019-06-08T06:56:59.638Z,99.90
2019-06-08T06:59:29.136Z,99.90
2019-06-08T07:01:58.567Z,99.90
2019-06-08T07:04:28.066Z,99.90
2019-06-08T07:06:57.439Z,99.90
2019-06-08T07:09:26.879Z,99.90
2019-06-08T07:11:56.786Z,99.90
2019-06-08T07:14:26.336Z,99.90
2019-06-08T07:16:56.120Z,99.90
2019-06-08T07:19:25.731Z,99.90
2019-06-08T07:21:55.192Z,99.90
2019-06-08T07:24:24.631Z,99.90
2019-06-08T07:26:54.561Z,99.90
2019-06-08T07:29:25.192Z,99.90
2019-06-08T07:31:55.387Z,99.90
2019-06-08T07:34:24.906Z,99.90
2019-06-08T07:36:55.468Z,99.90
2019-06-08T07:39:24.999Z,99.90
2019-06-08T07:41:55.851Z,99.90
2019-06-08T07:44:25.391Z,99.90
2019-06-08T07:46:55.824Z,99.90
2019-06-08T07:49:25.623Z,99.90
2019-06-08T07:52:06.815Z,99.90
2019-06-08T07:54:26.407Z,99.90
2019-06-08T07:56:57.000Z,99.90
2019-06-08T07:59:26.808Z,99.90
2019-06-08T08:01:56.645Z,99.90
2019-06-08T08:04:26.067Z,99.90
2019-06-08T08:06:56.779Z,99.90
2019-06-08T08:09:26.471Z,99.90
2019-06-08T08:11:57.170Z,99.90
2019-06-08T08:14:26.696Z,99.90
2019-06-08T08:16:57.151Z,99.90
2019-06-08T08:19:26.697Z,99.90
2019-06-08T08:22:03.138Z,99.90
2019-06-08T08:24:28.926Z,99.90
2019-06-08T08:27:02.029Z,99.90
2019-06-08T08:29:31.432Z,99.90
2019-06-08T08:32:01.810Z,99.90
2019-06-08T08:34:31.539Z,99.90
2019-06-08T08:37:06.164Z,99.90
2019-06-08T08:39:33.288Z,99.90
2019-06-08T08:42:04.999Z,99.90
2019-06-08T08:44:33.959Z,99.90
2019-06-08T08:47:03.483Z,99.90
2019-06-08T08:49:32.986Z,99.90
2019-06-08T08:52:02.433Z,99.90
2019-06-08T08:54:31.988Z,99.90
2019-06-08T08:57:04.561Z,99.90
2019-06-08T08:59:33.615Z,99.90
2019-06-08T09:02:03.232Z,99.90
2019-06-08T09:04:33.968Z,99.90
2019-06-08T09:07:07.801Z,99.90
2019-06-08T09:09:35.600Z,99.90
2019-06-08T09:12:05.073Z,99.90
2019-06-08T09:14:34.527Z,99.90
2019-06-08T09:17:04.270Z,99.90
2019-06-08T09:19:33.848Z,99.90
2019-06-08T09:22:04.082Z,99.90
2019-06-08T09:24:33.824Z,99.90
2019-06-08T09:27:04.280Z,99.90
2019-06-08T09:29:34.039Z,99.90
2019-06-08T09:32:03.773Z,99.90
2019-06-08T09:34:33.428Z,99.90
2019-06-08T09:37:04.987Z,99.90
2019-06-08T09:39:33.943Z,99.90
2019-06-08T09:42:04.889Z,99.90
2019-06-08T09:44:34.562Z,99.90
2019-06-08T09:47:09.322Z,99.90
2019-06-08T09:49:37.525Z,99.90
2019-06-08T09:52:08.596Z,99.90
2019-06-08T09:54:38.489Z,99.90
2019-06-08T09:57:09.072Z,99.90
2019-06-08T09:59:40.971Z,99.90
2019-06-08T10:02:12.986Z,99.90
2019-06-08T10:04:41.554Z,99.90
2019-06-08T10:07:11.012Z,99.90
2019-06-08T10:09:43.231Z,99.90
2019-06-08T10:12:11.550Z,99.90
2019-06-08T10:14:40.979Z,99.90
2019-06-08T10:17:10.446Z,99.90
2019-06-08T10:19:39.957Z,99.90
2019-06-08T10:22:09.429Z,99.90
2019-06-08T10:24:41.430Z,99.90
2019-06-08T10:27:11.651Z,99.90
2019-06-08T10:29:40.967Z,99.90
2019-06-08T10:32:12.431Z,99.90
2019-06-08T10:34:41.893Z,99.90
2019-06-08T10:37:13.327Z,99.90
2019-06-08T10:39:42.421Z,99.90
2019-06-08T10:42:11.969Z,99.90
2019-06-08T10:44:41.394Z,99.90
2019-06-08T10:47:11.985Z,99.90
2019-06-08T10:49:41.890Z,99.90
2019-06-08T10:52:12.312Z,99.90
2019-06-08T10:54:42.203Z,99.90
2019-06-08T10:57:11.651Z,99.90
2019-06-08T10:59:41.203Z,99.90
2019-06-08T11:02:13.981Z,99.90
2019-06-08T11:04:43.528Z,99.90
2019-06-08T11:07:16.002Z,99.90
2019-06-08T11:09:44.292Z,99.90
2019-06-08T11:12:15.325Z,99.90
2019-06-08T11:14:48.024Z,99.90
2019-06-08T11:17:17.979Z,99.90
2019-06-08T11:19:48.087Z,99.90
2019-06-08T11:22:18.063Z,99.90
2019-06-08T11:24:48.856Z,99.90
2019-06-08T11:27:18.736Z,99.90
2019-06-08T11:29:48.548Z,99.90
2019-06-08T11:32:18.435Z,99.90
2019-06-08T11:34:48.812Z,99.90
2019-06-08T11:37:21.011Z,99.90
2019-06-08T11:39:49.718Z,99.90
2019-06-08T11:42:19.358Z,99.90
2019-06-08T11:44:51.207Z,99.90
2019-06-08T11:47:19.978Z,99.90
2019-06-08T11:49:50.029Z,99.90
2019-06-08T11:52:19.783Z,99.90
2019-06-08T11:54:49.211Z,99.90
2019-06-08T11:57:19.103Z,99.90
2019-06-08T11:59:49.103Z,99.90
2019-06-08T12:02:18.652Z,99.90
2019-06-08T12:04:48.068Z,99.90
2019-06-08T12:07:17.535Z,99.90
2019-06-08T12:09:49.928Z,99.90
2019-06-08T12:12:21.044Z,99.90
2019-06-08T12:14:49.167Z,99.90
2019-06-08T12:17:22.231Z,99.90
2019-06-08T12:19:49.790Z,99.90
2019-06-08T12:22:21.737Z,99.90
2019-06-08T12:24:50.314Z,99.90
2019-06-08T12:27:29.611Z,99.90
2019-06-08T12:29:50.851Z,99.90
2019-06-08T12:32:20.494Z,99.90
2019-06-08T12:34:49.894Z,99.90
2019-06-08T12:37:22.160Z,99.90
2019-06-08T12:39:50.410Z,99.90
2019-06-08T12:42:24.389Z,99.90
2019-06-08T12:44:51.086Z,99.90
2019-06-08T12:47:24.677Z,99.90
2019-06-08T12:49:51.611Z,99.90
2019-06-08T12:52:22.470Z,99.90
2019-06-08T12:55:00.092Z,99.90
2019-06-08T12:57:23.183Z,99.90
2019-06-08T12:59:52.631Z,99.90
2019-06-08T13:02:24.206Z,99.90
2019-06-08T13:04:53.169Z,99.90
2019-06-08T13:07:22.606Z,99.90
2019-06-08T13:09:52.141Z,99.90
2019-06-08T13:12:21.966Z,99.90
2019-06-08T13:14:51.711Z,99.90
2019-06-08T13:17:21.373Z,99.90
2019-06-08T13:19:50.936Z,99.90
2019-06-08T13:22:27.975Z,99.90
2019-06-08T13:24:51.544Z,99.90
2019-06-08T13:27:23.073Z,99.90
2019-06-08T13:29:52.120Z,99.90
2019-06-08T13:32:21.991Z,99.90
2019-06-08T13:34:51.637Z,99.90
2019-06-08T13:37:22.095Z,99.90
2019-06-08T13:39:51.698Z,99.90
2019-06-08T13:42:22.948Z,99.90
2019-06-08T13:44:52.316Z,99.90
2019-06-08T13:47:23.175Z,99.90
2019-06-08T13:49:52.719Z,99.90
2019-06-08T13:52:23.784Z,99.90
2019-06-08T13:54:53.359Z,99.90
2019-06-08T13:57:24.949Z,99.90
2019-06-08T13:59:53.877Z,99.90
2019-06-08T14:02:28.174Z,99.90
2019-06-08T14:04:54.419Z,99.90
2019-06-08T14:07:28.472Z,99.90
2019-06-08T14:09:55.408Z,99.90
2019-06-08T14:12:28.236Z,99.90
2019-06-08T14:14:58.260Z,99.90
2019-06-08T14:17:27.223Z,99.90
2019-06-08T14:19:59.251Z,99.90
2019-06-08T14:22:28.921Z,99.90
2019-06-08T14:24:59.104Z,99.90
2019-06-08T14:27:31.839Z,99.90
2019-06-08T14:29:59.628Z,99.90
2019-06-08T14:32:30.234Z,99.90
2019-06-08T14:35:02.728Z,99.90
2019-06-08T14:37:31.075Z,99.90
2019-06-08T14:40:00.478Z,99.90
2019-06-08T14:42:31.882Z,99.90
2019-06-08T14:45:01.551Z,99.90
2019-06-08T14:47:32.193Z,99.90
2019-06-08T14:50:02.141Z,99.90
2019-06-08T14:52:31.909Z,99.90
2019-06-08T14:55:02.688Z,99.90
2019-06-08T14:57:32.311Z,99.90
2019-06-08T15:00:08.436Z,99.90
2019-06-08T15:02:33.508Z,99.90
2019-06-08T15:05:03.990Z,99.90
2019-06-08T15:07:33.539Z,99.90
2019-06-08T15:10:02.980Z,99.90
2019-06-08T15:12:32.589Z,99.90
2019-06-08T15:15:02.051Z,99.90
2019-06-08T15:17:32.220Z,99.90
2019-06-08T15:20:01.945Z,99.90
2019-06-08T15:22:32.045Z,99.90
2019-06-08T15:25:01.720Z,99.90
2019-06-08T15:27:33.337Z,99.90
2019-06-08T15:30:02.299Z,99.90
2019-06-08T15:32:35.712Z,99.90
2019-06-08T15:35:09.596Z,99.90
2019-06-08T15:37:40.847Z,99.90
2019-06-08T15:40:10.651Z,99.90
2019-06-08T15:42:41.550Z,99.90
2019-06-08T15:45:11.228Z,99.90
2019-06-08T15:47:40.931Z,99.90
2019-06-08T15:50:11.250Z,99.90
2019-06-08T15:52:40.762Z,99.90
2019-06-08T15:55:11.334Z,99.90
2019-06-08T15:57:41.447Z,99.90
2019-06-08T16:00:11.886Z,99.90
2019-06-08T16:02:41.677Z,99.90
2019-06-08T16:05:11.324Z,99.90
2019-06-08T16:07:40.722Z,99.90
2019-06-08T16:10:10.921Z,99.90
2019-06-08T16:12:40.363Z,99.90
2019-06-08T16:15:10.156Z,99.90
2019-06-08T16:17:39.587Z,99.90
2019-06-08T16:20:09.466Z,99.90
2019-06-08T16:22:40.003Z,99.90
2019-06-08T16:25:09.862Z,99.90
2019-06-08T16:27:39.386Z,99.90
2019-06-08T16:30:10.061Z,99.90
2019-06-08T16:32:39.953Z,99.90
2019-06-08T16:35:10.598Z,99.90
2019-06-08T16:37:40.057Z,99.90
2019-06-08T16:40:09.869Z,99.90
2019-06-08T16:42:39.315Z,99.90
2019-06-08T16:45:08.913Z,99.90
2019-06-08T16:47:39.689Z,99.90
2019-06-08T16:50:23.378Z,99.90
2019-06-08T16:52:40.793Z,99.90
2019-06-08T16:55:10.303Z,99.90
2019-06-08T16:57:41.153Z,98.50
2019-06-08T17:00:30.698Z,98.90
2019-06-08T17:02:42.555Z,99.60
2019-06-08T17:05:12.127Z,98.00
2019-06-08T17:07:41.579Z,96.70
2019-06-08T17:10:11.358Z,96.30
2019-06-08T17:12:41.251Z,95.20
2019-06-08T17:15:11.055Z,95.60
2019-06-08T17:17:40.595Z,96.50
2019-06-08T17:20:11.075Z,96.00
2019-06-08T17:22:40.938Z,95.80
2019-06-08T17:25:11.156Z,95.50
2019-06-08T17:27:40.907Z,94.20
2019-06-08T17:30:13.018Z,94.30
2019-06-08T17:32:42.467Z,92.90
2019-06-08T17:35:12.187Z,93.20
2019-06-08T17:37:41.977Z,93.80
2019-06-08T17:40:12.245Z,94.60
2019-06-08T17:42:41.779Z,93.80
2019-06-08T17:45:11.380Z,92.80
2019-06-08T17:47:40.882Z,92.90
2019-06-08T17:50:11.611Z,94.70
2019-06-08T17:52:41.126Z,96.20
2019-06-08T17:55:12.397Z,96.10
2019-06-08T17:57:51.388Z,94.90
2019-06-08T18:00:13.778Z,94.50
2019-06-08T18:02:44.243Z,93.90
2019-06-08T18:05:17.712Z,93.30
2019-06-08T18:07:48.897Z,92.90
2019-06-08T18:10:18.903Z,93.10
2019-06-08T18:12:49.226Z,94.10
2019-06-08T18:15:19.120Z,93.80
2019-06-08T18:17:48.575Z,93.20
2019-06-08T18:20:18.408Z,94.00
2019-06-08T18:22:49.389Z,94.90
2019-06-08T18:25:19.327Z,96.40
2019-06-08T18:28:05.357Z,97.30
2019-06-08T18:30:23.487Z,96.80
2019-06-08T18:32:53.022Z,96.70
2019-06-08T18:35:22.467Z,97.10
2019-06-08T18:37:53.014Z,97.70
2019-06-08T18:40:22.587Z,97.70
2019-06-08T18:42:52.103Z,96.40
2019-06-08T18:45:21.623Z,96.60
2019-06-08T18:47:51.066Z,95.40
2019-06-08T18:50:20.586Z,94.90
2019-06-08T18:52:50.106Z,94.80
2019-06-08T18:55:19.690Z,95.10
2019-06-08T18:57:49.345Z,95.80
2019-06-08T19:00:20.390Z,96.00
2019-06-08T19:02:54.341Z,96.80
2019-06-08T19:05:21.408Z,97.00
2019-06-08T19:07:52.543Z,97.30
2019-06-08T19:10:37.413Z,97.90
2019-06-08T19:13:06.999Z,98.40
2019-06-08T19:15:41.888Z,99.10
2019-06-08T19:18:08.739Z,99.40
2019-06-08T19:20:43.109Z,99.90
2019-06-08T19:23:09.617Z,99.90
2019-06-08T19:25:42.289Z,99.90
2019-06-08T19:28:10.365Z,99.90
2019-06-08T19:30:42.439Z,99.90
2019-06-08T19:33:10.963Z,99.90
2019-06-08T19:35:40.765Z,99.90
2019-06-08T19:38:11.663Z,99.90
2019-06-08T19:40:42.649Z,99.90
2019-06-08T19:43:12.306Z,99.90
2019-06-08T19:45:42.382Z,99.90
2019-06-08T19:48:12.841Z,99.90
2019-06-08T19:50:42.863Z,99.90
2019-06-08T19:53:12.319Z,99.90
2019-06-08T19:55:43.094Z,99.90
2019-06-08T19:58:12.807Z,99.90
2019-06-08T20:00:44.168Z,99.90
2019-06-08T20:03:13.678Z,99.90
2019-06-08T20:05:43.187Z,99.90
2019-06-08T20:08:13.607Z,99.90
2019-06-08T20:10:43.099Z,99.90
2019-06-08T20:13:12.525Z,99.90
2019-06-08T20:15:47.321Z,99.90
2019-06-08T20:18:13.068Z,99.90
2019-06-08T20:20:43.820Z,99.90
2019-06-08T20:23:14.603Z,99.90
2019-06-08T20:25:45.140Z,99.90
2019-06-08T20:28:17.186Z,99.90
2019-06-08T20:30:46.670Z,99.90
2019-06-08T20:33:17.301Z,99.90
2019-06-08T20:35:48.539Z,99.90
2019-06-08T20:38:31.496Z,99.90
2019-06-08T20:40:50.097Z,99.90
2019-06-08T20:43:19.608Z,99.90
2019-06-08T20:45:50.633Z,99.90
2019-06-08T20:48:20.168Z,99.90
2019-06-08T20:50:51.090Z,99.90
2019-06-08T20:53:20.679Z,99.90
2019-06-08T20:55:52.423Z,99.90
2019-06-08T20:58:22.387Z,99.90
2019-06-08T21:00:52.785Z,99.90
2019-06-08T21:03:22.608Z,99.90
2019-06-08T21:05:52.652Z,99.90
2019-06-08T21:08:22.119Z,99.90
2019-06-08T21:10:54.070Z,99.90
2019-06-08T21:13:22.644Z,99.90
2019-06-08T21:15:56.858Z,99.90
2019-06-08T21:18:24.440Z,99.90
2019-06-08T21:20:55.174Z,99.90
2019-06-08T21:23:24.950Z,99.90
2019-06-08T21:25:56.334Z,99.90
2019-06-08T21:28:27.821Z,99.90
2019-06-08T21:31:01.951Z,99.90
2019-06-08T21:33:28.669Z,99.90
2019-06-08T21:36:04.370Z,99.90
2019-06-08T21:38:29.178Z,99.90
2019-06-08T21:41:02.543Z,99.90
2019-06-08T21:43:29.772Z,99.90
2019-06-08T21:46:01.041Z,99.90
2019-06-08T21:48:30.638Z,99.90
2019-06-08T21:51:01.734Z,99.90
2019-06-08T21:53:31.324Z,99.90
2019-06-08T21:56:01.967Z,99.90
2019-06-08T21:58:31.405Z,99.90
2019-06-08T22:01:01.222Z,99.90
2019-06-08T22:03:31.125Z,99.90
2019-06-08T22:06:00.596Z,99.90
2019-06-08T22:08:30.034Z,99.90
2019-06-08T22:11:00.650Z,99.90
2019-06-08T22:13:30.323Z,99.90
2019-06-08T22:16:01.934Z,99.90
2019-06-08T22:18:30.851Z,99.90
2019-06-08T22:21:01.214Z,99.90
2019-06-08T22:23:32.014Z,99.90
2019-06-08T22:26:01.460Z,99.90
2019-06-08T22:28:30.913Z,99.90
2019-06-08T22:31:01.698Z,99.90
2019-06-08T22:33:31.529Z,99.90
2019-06-08T22:36:00.977Z,99.90
2019-06-08T22:38:30.427Z,99.90
2019-06-08T22:41:00.669Z,99.90
2019-06-08T22:43:30.952Z,99.90
2019-06-08T22:46:01.832Z,99.90
2019-06-08T22:48:31.482Z,99.90
2019-06-08T22:51:02.386Z,99.90
2019-06-08T22:53:31.907Z,99.90
2019-06-08T22:56:02.787Z,99.90
2019-06-08T22:58:32.419Z,99.90
2019-06-08T23:01:06.444Z,99.90
2019-06-08T23:03:32.927Z,99.90
2019-06-08T23:06:03.879Z,99.90
2019-06-08T23:08:33.451Z,99.90
2019-06-08T23:11:03.751Z,99.90
2019-06-08T23:13:33.973Z,99.90
2019-06-08T23:16:04.361Z,99.90
2019-06-08T23:18:37.155Z,99.90
2019-06-08T23:21:06.553Z,99.90
2019-06-08T23:23:38.108Z,99.90
2019-06-08T23:26:10.389Z,99.90
2019-06-08T23:28:38.704Z,99.90
2019-06-08T23:31:19.366Z,99.90
2019-06-08T23:33:39.208Z,99.90
2019-06-08T23:36:39.450Z,99.90
2019-06-08T23:38:39.755Z,99.90
2019-06-08T23:41:10.140Z,99.90
2019-06-08T23:43:39.914Z,99.90
2019-06-08T23:46:09.294Z,99.90
2019-06-08T23:48:38.804Z,99.90
2019-06-08T23:51:10.860Z,99.90
2019-06-08T23:53:39.415Z,99.90
2019-06-08T23:56:11.774Z,99.90
2019-06-08T23:58:39.919Z,99.90
